createdAt,value
2018-07-21T00:00:00.869Z,0.00
2018-07-21T00:01:00.846Z,0.00
2018-07-21T00:02:00.827Z,0.00
2018-07-21T00:03:00.799Z,0.00
2018-07-21T00:04:00.777Z,0.00
2018-07-21T00:05:00.753Z,0.00
2018-07-21T00:06:00.728Z,0.00
2018-07-21T00:07:00.705Z,0.00
2018-07-21T00:08:00.681Z,0.00
2018-07-21T00:09:00.658Z,0.00
2018-07-21T00:10:00.637Z,0.00
2018-07-21T00:11:00.613Z,0.00
2018-07-21T00:12:00.591Z,0.00
2018-07-21T00:13:00.568Z,0.00
2018-07-21T00:14:00.547Z,0.00
2018-07-21T00:15:00.519Z,0.00
2018-07-21T00:16:00.495Z,0.00
2018-07-21T00:17:00.474Z,0.00
2018-07-21T00:18:00.450Z,0.00
2018-07-21T00:19:00.629Z,0.00
2018-07-21T00:20:00.609Z,0.00
2018-07-21T00:21:00.582Z,0.00
2018-07-21T00:22:00.563Z,0.00
2018-07-21T00:23:00.336Z,0.00
2018-07-21T00:24:00.312Z,0.00
2018-07-21T00:25:00.490Z,0.00
2018-07-21T00:26:00.267Z,0.00
2018-07-21T00:27:00.245Z,0.00
2018-07-21T00:28:00.215Z,0.00
2018-07-21T00:29:00.196Z,0.00
2018-07-21T00:30:00.173Z,0.00
2018-07-21T00:31:00.150Z,0.00
2018-07-21T00:32:00.125Z,0.00
2018-07-21T00:33:00.102Z,0.00
2018-07-21T00:34:00.079Z,0.00
2018-07-21T00:35:00.059Z,0.00
2018-07-21T00:36:00.035Z,0.00
2018-07-21T00:37:00.009Z,0.00
2018-07-21T00:37:59.984Z,0.00
2018-07-21T00:39:00.110Z,0.00
2018-07-21T00:39:59.936Z,0.00
2018-07-21T00:40:59.913Z,0.00
2018-07-21T00:41:59.894Z,0.00
2018-07-21T00:42:59.877Z,0.00
2018-07-21T00:43:59.846Z,0.00
2018-07-21T00:44:59.821Z,0.00
2018-07-21T00:45:59.798Z,0.00
2018-07-21T00:46:59.776Z,0.00
2018-07-21T00:47:59.749Z,0.00
2018-07-21T00:48:59.727Z,0.00
2018-07-21T00:49:59.704Z,0.00
2018-07-21T00:50:59.684Z,0.00
2018-07-21T00:51:59.656Z,0.00
2018-07-21T00:52:59.635Z,0.00
2018-07-21T00:53:59.613Z,0.00
2018-07-21T00:54:59.588Z,0.00
2018-07-21T00:55:59.564Z,0.00
2018-07-21T00:56:59.543Z,0.00
2018-07-21T00:57:59.516Z,0.00
2018-07-21T00:58:59.695Z,0.00
2018-07-21T00:59:59.469Z,0.00
2018-07-21T01:00:59.445Z,0.00
2018-07-21T01:01:59.424Z,0.00
2018-07-21T01:02:59.401Z,0.00
2018-07-21T01:03:59.377Z,0.00
2018-07-21T01:04:59.354Z,0.00
2018-07-21T01:05:59.533Z,0.00
2018-07-21T01:06:59.510Z,0.00
2018-07-21T01:07:59.288Z,0.00
2018-07-21T01:08:59.260Z,0.00
2018-07-21T01:09:59.234Z,0.00
2018-07-21T01:10:59.225Z,0.00
2018-07-21T01:11:59.186Z,0.00
2018-07-21T01:12:59.164Z,0.00
2018-07-21T01:13:59.147Z,0.00
2018-07-21T01:14:59.322Z,0.00
2018-07-21T01:15:59.297Z,0.00
2018-07-21T01:16:59.077Z,0.00
2018-07-21T01:17:59.053Z,0.00
2018-07-21T01:18:59.022Z,0.00
2018-07-21T01:19:58.996Z,0.00
2018-07-21T01:20:58.974Z,0.00
2018-07-21T01:22:00.169Z,0.00
2018-07-21T01:22:59.129Z,0.00
2018-07-21T01:23:58.907Z,0.00
2018-07-21T01:24:58.879Z,0.00
2018-07-21T01:25:58.858Z,0.00
2018-07-21T01:26:58.834Z,0.00
2018-07-21T01:27:58.810Z,0.00
2018-07-21T01:28:58.790Z,0.00
2018-07-21T01:29:58.761Z,0.00
2018-07-21T01:30:58.741Z,0.00
2018-07-21T01:31:58.715Z,0.00
2018-07-21T01:32:58.689Z,0.00
2018-07-21T01:33:58.669Z,0.00
2018-07-21T01:34:58.667Z,0.00
2018-07-21T01:35:58.620Z,0.00
2018-07-21T01:36:58.598Z,0.00
2018-07-21T01:37:58.575Z,0.00
2018-07-21T01:38:58.549Z,0.00
2018-07-21T01:39:58.527Z,0.00
2018-07-21T01:40:58.501Z,0.00
2018-07-21T01:41:58.489Z,0.00
2018-07-21T01:42:58.455Z,0.00
2018-07-21T01:43:58.732Z,0.00
2018-07-21T01:44:58.407Z,0.00
2018-07-21T01:45:58.390Z,0.00
2018-07-21T01:46:58.359Z,0.00
2018-07-21T01:47:58.334Z,0.00
2018-07-21T01:48:58.311Z,0.00
2018-07-21T01:49:58.289Z,0.00
2018-07-21T01:50:58.266Z,0.00
2018-07-21T01:51:58.243Z,0.00
2018-07-21T01:52:58.218Z,0.00
2018-07-21T01:53:58.197Z,0.00
2018-07-21T01:54:58.172Z,0.00
2018-07-21T01:55:58.149Z,0.00
2018-07-21T01:56:58.124Z,0.00
2018-07-21T01:57:58.100Z,0.00
2018-07-21T01:58:58.078Z,0.00
2018-07-21T01:59:58.051Z,0.00
2018-07-21T02:00:58.028Z,0.00
2018-07-21T02:01:58.007Z,0.00
2018-07-21T02:02:57.982Z,0.00
2018-07-21T02:03:57.958Z,0.00
2018-07-21T02:04:57.939Z,0.00
2018-07-21T02:05:57.910Z,0.00
2018-07-21T02:06:57.888Z,0.00
2018-07-21T02:07:57.866Z,0.00
2018-07-21T02:08:57.839Z,0.00
2018-07-21T02:09:57.818Z,0.00
2018-07-21T02:10:57.793Z,0.00
2018-07-21T02:11:57.769Z,0.00
2018-07-21T02:12:57.746Z,0.00
2018-07-21T02:13:57.724Z,0.00
2018-07-21T02:14:57.701Z,0.00
2018-07-21T02:15:57.677Z,0.00
2018-07-21T02:16:57.657Z,0.00
2018-07-21T02:17:57.628Z,0.00
2018-07-21T02:18:57.605Z,0.00
2018-07-21T02:19:57.580Z,0.00
2018-07-21T02:20:57.560Z,0.00
2018-07-21T02:21:57.539Z,0.00
2018-07-21T02:22:57.513Z,0.00
2018-07-21T02:23:57.489Z,0.00
2018-07-21T02:24:57.475Z,0.00
2018-07-21T02:25:57.443Z,0.00
2018-07-21T02:26:57.419Z,4.00
2018-07-21T02:27:57.394Z,4.00
2018-07-21T02:28:57.373Z,4.00
2018-07-21T02:29:57.346Z,4.00
2018-07-21T02:30:57.323Z,0.00
2018-07-21T02:31:57.299Z,4.00
2018-07-21T02:32:57.281Z,4.00
2018-07-21T02:33:57.255Z,4.00
2018-07-21T02:34:57.231Z,4.00
2018-07-21T02:35:57.206Z,4.00
2018-07-21T02:36:57.184Z,8.00
2018-07-21T02:37:57.159Z,4.00
2018-07-21T02:38:57.136Z,8.00
2018-07-21T02:39:57.113Z,8.00
2018-07-21T02:40:57.088Z,8.00
2018-07-21T02:41:57.064Z,8.00
2018-07-21T02:42:57.039Z,12.00
2018-07-21T02:43:57.016Z,12.00
2018-07-21T02:44:56.993Z,16.00
2018-07-21T02:45:56.972Z,20.00
2018-07-21T02:46:56.949Z,20.00
2018-07-21T02:47:56.925Z,20.00
2018-07-21T02:48:56.901Z,24.00
2018-07-21T02:49:56.875Z,28.00
2018-07-21T02:50:56.854Z,32.00
2018-07-21T02:51:56.828Z,36.00
2018-07-21T02:52:56.809Z,40.00
2018-07-21T02:53:56.835Z,44.00
2018-07-21T02:54:56.760Z,52.00
2018-07-21T02:55:56.736Z,60.00
2018-07-21T02:56:56.712Z,64.00
2018-07-21T02:57:56.696Z,76.00
2018-07-21T02:58:56.669Z,80.00
2018-07-21T02:59:56.644Z,92.00
2018-07-21T03:00:56.620Z,100.00
2018-07-21T03:01:56.591Z,116.00
2018-07-21T03:02:56.568Z,128.00
2018-07-21T03:03:56.544Z,140.00
2018-07-21T03:04:56.521Z,156.00
2018-07-21T03:05:56.499Z,176.00
2018-07-21T03:06:56.482Z,192.00
2018-07-21T03:07:56.454Z,216.00
2018-07-21T03:08:56.428Z,244.00
2018-07-21T03:09:56.432Z,268.00
2018-07-21T03:10:56.378Z,300.00
2018-07-21T03:11:56.505Z,328.00
2018-07-21T03:12:56.331Z,356.00
2018-07-21T03:13:56.307Z,392.00
2018-07-21T03:14:56.282Z,428.00
2018-07-21T03:15:56.258Z,464.00
2018-07-21T03:16:56.236Z,504.00
2018-07-21T03:17:56.217Z,540.00
2018-07-21T03:18:56.193Z,584.00
2018-07-21T03:19:56.167Z,632.00
2018-07-21T03:20:56.142Z,680.00
2018-07-21T03:21:56.119Z,728.00
2018-07-21T03:22:56.095Z,776.00
2018-07-21T03:23:56.068Z,816.00
2018-07-21T03:24:56.047Z,860.00
2018-07-21T03:25:56.047Z,908.00
2018-07-21T03:26:56.001Z,960.00
2018-07-21T03:27:55.976Z,1020.00
2018-07-21T03:28:55.957Z,1088.00
2018-07-21T03:29:55.931Z,1160.00
2018-07-21T03:30:56.050Z,1228.00
2018-07-21T03:31:55.884Z,1296.00
2018-07-21T03:32:55.860Z,1352.00
2018-07-21T03:33:55.878Z,1404.00
2018-07-21T03:34:55.809Z,1448.00
2018-07-21T03:35:55.785Z,1492.00
2018-07-21T03:36:55.759Z,1544.00
2018-07-21T03:37:55.739Z,1600.00
2018-07-21T03:38:55.716Z,1668.00
2018-07-21T03:39:55.690Z,1744.00
2018-07-21T03:40:55.979Z,1832.00
2018-07-21T03:41:55.643Z,1928.00
2018-07-21T03:42:55.620Z,2024.00
2018-07-21T03:43:55.594Z,2108.00
2018-07-21T03:44:55.570Z,2204.00
2018-07-21T03:45:55.550Z,2304.00
2018-07-21T03:46:55.834Z,2408.00
2018-07-21T03:47:55.502Z,2500.00
2018-07-21T03:48:55.482Z,2576.00
2018-07-21T03:49:55.452Z,2652.00
2018-07-21T03:50:55.428Z,2724.00
2018-07-21T03:51:55.403Z,2784.00
2018-07-21T03:52:55.381Z,2852.00
2018-07-21T03:53:55.359Z,2912.00
2018-07-21T03:54:55.337Z,2972.00
2018-07-21T03:55:55.312Z,3032.00
2018-07-21T03:56:55.289Z,3092.00
2018-07-21T03:57:55.264Z,3144.00
2018-07-21T03:58:55.240Z,3180.00
2018-07-21T03:59:55.217Z,3196.00
2018-07-21T04:00:55.192Z,3200.00
2018-07-21T04:01:55.171Z,3200.00
2018-07-21T04:02:55.156Z,3196.00
2018-07-21T04:03:55.123Z,3200.00
2018-07-21T04:04:55.097Z,3208.00
2018-07-21T04:05:55.077Z,3220.00
2018-07-21T04:06:55.054Z,3264.00
2018-07-21T04:07:55.030Z,3328.00
2018-07-21T04:08:55.032Z,3404.00
2018-07-21T04:09:54.981Z,3512.00
2018-07-21T04:10:54.960Z,3628.00
2018-07-21T04:11:54.936Z,3736.00
2018-07-21T04:12:54.917Z,3864.00
2018-07-21T04:13:54.896Z,3964.00
2018-07-21T04:14:54.867Z,4036.00
2018-07-21T04:15:54.844Z,4104.00
2018-07-21T04:16:54.826Z,4172.00
2018-07-21T04:17:54.796Z,4232.00
2018-07-21T04:18:54.774Z,4316.00
2018-07-21T04:19:54.751Z,4424.00
2018-07-21T04:20:54.727Z,4544.00
2018-07-21T04:21:54.702Z,4668.00
2018-07-21T04:22:54.681Z,4824.00
2018-07-21T04:23:54.655Z,5028.00
2018-07-21T04:24:54.633Z,5316.00
2018-07-21T04:25:54.610Z,5688.00
2018-07-21T04:26:54.588Z,6044.00
2018-07-21T04:27:54.564Z,6392.00
2018-07-21T04:28:54.541Z,6752.00
2018-07-21T04:29:54.517Z,7108.00
2018-07-21T04:30:54.499Z,7456.00
2018-07-21T04:31:54.469Z,7776.00
2018-07-21T04:32:54.446Z,8096.00
2018-07-21T04:33:54.424Z,8412.00
2018-07-21T04:34:54.401Z,8712.00
2018-07-21T04:35:54.377Z,9056.00
2018-07-21T04:36:54.356Z,9412.00
2018-07-21T04:37:54.337Z,9744.00
2018-07-21T04:38:54.312Z,10128.00
2018-07-21T04:39:54.292Z,10456.00
2018-07-21T04:40:54.264Z,10860.00
2018-07-21T04:41:54.239Z,11268.00
2018-07-21T04:42:54.218Z,11664.00
2018-07-21T04:43:54.399Z,11944.00
2018-07-21T04:44:54.169Z,12264.00
2018-07-21T04:45:54.151Z,12712.00
2018-07-21T04:46:54.329Z,13144.00
2018-07-21T04:47:54.103Z,13644.00
2018-07-21T04:48:54.082Z,14048.00
2018-07-21T04:49:54.060Z,14352.00
2018-07-21T04:50:54.038Z,14752.00
2018-07-21T04:51:54.015Z,15104.00
2018-07-21T04:52:53.993Z,15424.00
2018-07-21T04:53:53.983Z,15712.00
2018-07-21T04:54:53.947Z,16256.00
2018-07-21T04:55:53.925Z,16640.00
2018-07-21T04:56:53.912Z,16736.00
2018-07-21T04:57:54.086Z,17056.00
2018-07-21T04:58:53.863Z,17312.00
2018-07-21T04:59:53.842Z,17696.00
2018-07-21T05:00:53.870Z,17920.00
2018-07-21T05:01:53.794Z,17984.00
2018-07-21T05:02:56.604Z,17984.00
2018-07-21T05:03:56.843Z,17952.00
2018-07-21T05:04:53.731Z,17792.00
2018-07-21T05:05:53.708Z,17696.00
2018-07-21T05:06:53.689Z,17472.00
2018-07-21T05:07:53.667Z,17248.00
2018-07-21T05:08:53.649Z,17152.00
2018-07-21T05:09:53.628Z,16800.00
2018-07-21T05:10:53.810Z,17280.00
2018-07-21T05:11:53.586Z,17440.00
2018-07-21T05:12:53.770Z,17664.00
2018-07-21T05:13:56.365Z,17600.00
2018-07-21T05:15:38.499Z,16832.00
2018-07-21T05:18:42.318Z,16480.00
2018-07-21T05:19:42.095Z,16672.00
2018-07-21T05:20:42.073Z,16768.00
2018-07-21T05:22:27.037Z,17088.00
2018-07-21T05:24:06.543Z,17856.00
2018-07-21T05:25:06.319Z,17984.00
2018-07-21T05:26:06.298Z,18496.00
2018-07-21T05:27:06.282Z,18848.00
2018-07-21T05:28:06.261Z,19424.00
2018-07-21T05:29:06.236Z,19936.00
2018-07-21T05:30:06.217Z,20288.00
2018-07-21T05:31:06.195Z,20640.00
2018-07-21T05:32:06.179Z,20800.00
2018-07-21T05:33:06.153Z,20672.00
2018-07-21T05:34:06.132Z,20608.00
2018-07-21T05:35:06.114Z,20480.00
2018-07-21T05:36:06.093Z,20896.00
2018-07-21T05:37:06.077Z,21024.00
2018-07-21T05:38:06.053Z,21696.00
2018-07-21T05:39:06.055Z,22432.00
2018-07-21T05:40:06.013Z,23264.00
2018-07-21T05:41:05.991Z,24288.00
2018-07-21T06:17:56.002Z,25568.00
2018-07-21T06:18:55.980Z,25728.00
2018-07-21T06:19:55.958Z,25184.00
2018-07-21T06:20:55.740Z,25056.00
2018-07-21T06:21:55.921Z,24800.00
2018-07-21T06:22:55.696Z,24832.00
2018-07-21T06:23:55.882Z,24768.00
2018-07-21T06:24:55.856Z,24736.00
2018-07-21T06:25:55.841Z,24512.00
2018-07-21T06:26:55.816Z,24480.00
2018-07-21T06:27:55.800Z,24288.00
2018-07-21T06:28:55.577Z,24672.00
2018-07-21T06:29:55.557Z,24544.00
2018-07-21T06:30:55.543Z,24160.00
2018-07-21T06:31:55.518Z,24768.00
2018-07-21T06:32:55.509Z,24512.00
2018-07-21T06:33:55.479Z,24448.00
2018-07-21T06:34:55.667Z,24512.00
2018-07-21T06:35:55.439Z,24608.00
2018-07-21T06:36:55.419Z,24512.00
2018-07-21T06:37:55.601Z,24992.00
2018-07-21T06:38:55.379Z,25600.00
2018-07-21T06:39:55.360Z,26368.00
2018-07-21T06:40:55.346Z,27136.00
2018-07-21T06:41:55.326Z,28032.00
2018-07-21T06:42:55.306Z,28992.00
2018-07-21T06:43:55.505Z,29952.00
2018-07-21T06:44:55.471Z,28480.00
2018-07-21T06:45:55.248Z,28352.00
2018-07-21T06:46:55.428Z,28320.00
2018-07-21T06:47:55.410Z,28096.00
2018-07-21T06:48:55.195Z,28576.00
2018-07-21T06:49:55.171Z,28896.00
2018-07-21T07:06:22.762Z,24992.00
2018-07-21T07:07:22.542Z,24672.00
2018-07-21T07:08:22.520Z,24448.00
2018-07-21T07:09:22.505Z,24576.00
2018-07-21T07:10:22.484Z,24704.00
2018-07-21T07:11:22.464Z,24928.00
2018-07-21T07:12:22.447Z,25248.00
2018-07-21T07:13:22.424Z,25920.00
2018-07-21T07:14:22.405Z,26912.00
2018-07-21T07:15:22.589Z,28256.00
2018-07-21T07:16:22.392Z,31360.00
2018-07-21T07:17:22.354Z,33024.00
2018-07-21T07:18:22.331Z,34432.00
2018-07-21T07:19:22.318Z,36832.00
2018-07-21T07:20:22.497Z,35232.00
2018-07-21T07:21:22.273Z,37184.00
2018-07-21T07:22:22.261Z,40608.00
2018-07-21T07:23:22.438Z,43360.00
2018-07-21T07:25:04.727Z,42560.00
2018-07-21T07:26:04.556Z,39392.00
2018-07-21T07:27:04.537Z,39040.00
2018-07-21T07:28:04.521Z,39200.00
2018-07-21T07:29:04.502Z,40704.00
2018-07-21T07:30:04.282Z,47584.00
2018-07-21T07:31:04.265Z,48448.00
2018-07-21T07:32:04.250Z,42336.00
2018-07-21T07:33:07.051Z,47936.00
2018-07-21T07:34:04.410Z,40896.00
2018-07-21T07:35:04.227Z,37920.00
2018-07-21T07:36:04.378Z,36672.00
2018-07-21T07:37:04.159Z,34848.00
2018-07-21T07:38:04.359Z,34208.00
2018-07-21T07:39:04.125Z,37792.00
2018-07-21T07:40:04.110Z,34272.00
2018-07-21T07:41:04.090Z,36448.00
2018-07-21T07:42:04.173Z,36768.00
2018-07-21T07:43:04.054Z,34528.00
2018-07-21T07:44:04.044Z,33824.00
2018-07-21T07:45:04.019Z,34304.00
2018-07-21T07:46:04.001Z,34400.00
2018-07-21T07:47:03.985Z,35616.00
2018-07-21T07:48:03.969Z,37760.00
2018-07-21T07:49:03.957Z,47136.00
2018-07-21T07:50:03.936Z,51744.00
2018-07-21T07:51:03.919Z,45536.00
2018-07-21T07:52:03.900Z,45600.00
2018-07-21T07:53:03.881Z,39424.00
2018-07-21T07:54:03.867Z,34208.00
2018-07-21T07:55:03.851Z,32896.00
2018-07-21T07:56:03.831Z,33088.00
2018-07-21T07:57:03.815Z,32480.00
2018-07-21T07:58:03.798Z,33184.00
2018-07-21T07:59:03.779Z,33536.00
2018-07-21T08:00:03.766Z,34048.00
2018-07-21T08:01:03.753Z,35680.00
2018-07-21T08:02:03.732Z,34816.00
2018-07-21T08:03:03.714Z,39936.00
2018-07-21T08:04:03.694Z,44768.00
2018-07-21T08:05:03.678Z,40800.00
2018-07-21T08:06:03.661Z,40736.00
2018-07-21T08:07:03.650Z,40288.00
2018-07-21T08:08:03.630Z,39904.00
2018-07-21T08:09:03.619Z,39424.00
2018-07-21T08:10:03.595Z,50656.00
2018-07-21T08:11:03.578Z,36928.00
2018-07-21T08:12:03.564Z,36608.00
2018-07-21T08:13:03.544Z,35424.00
2018-07-21T08:14:03.538Z,32928.00
2018-07-21T08:15:03.510Z,34368.00
2018-07-21T08:16:03.492Z,54368.00
2018-07-21T08:17:03.676Z,50720.00
2018-07-21T08:18:03.457Z,46208.00
2018-07-21T08:19:03.445Z,45632.00
2018-07-21T08:20:03.428Z,44704.00
2018-07-21T08:21:03.410Z,31008.00
2018-07-21T08:22:03.393Z,31904.00
2018-07-21T08:23:03.376Z,42944.00
2018-07-21T08:24:03.361Z,51232.00
2018-07-21T08:25:03.342Z,60288.00
2018-07-21T08:26:03.327Z,68256.00
2018-07-21T08:27:03.309Z,67904.00
2018-07-21T08:28:03.497Z,66112.00
2018-07-21T08:29:03.520Z,60192.00
2018-07-21T08:30:03.469Z,58368.00
2018-07-21T08:31:03.246Z,55712.00
2018-07-21T08:32:03.430Z,57664.00
2018-07-21T08:33:03.214Z,59264.00
2018-07-21T08:34:06.829Z,64928.00
2018-07-21T08:35:03.387Z,73792.00
2018-07-21T08:36:03.371Z,72896.00
2018-07-21T08:37:07.188Z,66432.00
2018-07-21T08:38:03.338Z,71744.00
2018-07-21T08:39:03.324Z,80192.00
2018-07-21T08:40:03.305Z,78560.00
2018-07-21T08:41:06.523Z,76768.00
2018-07-21T08:42:03.276Z,63520.00
2018-07-21T08:43:03.060Z,73888.00
2018-07-21T08:44:04.461Z,55200.00
2018-07-21T08:45:03.032Z,54112.00
2018-07-21T08:46:03.016Z,68384.00
2018-07-21T08:47:03.205Z,67488.00
2018-07-21T08:50:09.670Z,87744.00
2018-07-21T08:51:09.658Z,85056.00
2018-07-21T08:52:09.641Z,68256.00
2018-07-21T08:53:09.630Z,62528.00
2018-07-21T08:54:09.413Z,45696.00
2018-07-21T08:55:09.398Z,47968.00
2018-07-21T08:56:09.461Z,56800.00
2018-07-21T08:57:09.371Z,62592.00
2018-07-21T08:58:09.357Z,65952.00
2018-07-21T08:59:09.347Z,76192.00
2018-07-21T09:00:09.329Z,90336.00
2018-07-21T09:01:09.318Z,86208.00
2018-07-21T09:02:09.303Z,77472.00
2018-07-21T09:07:22.455Z,40128.00
2018-07-21T09:08:22.435Z,37248.00
2018-07-21T09:10:04.580Z,37120.00
2018-07-21T09:11:04.566Z,37792.00
2018-07-21T09:12:04.551Z,37344.00
2018-07-21T09:13:04.391Z,36096.00
2018-07-21T09:14:04.523Z,34816.00
2018-07-21T09:15:04.313Z,34720.00
2018-07-21T09:16:04.510Z,34112.00
2018-07-21T09:17:04.478Z,34784.00
2018-07-21T09:18:04.462Z,38528.00
2018-07-21T09:19:04.446Z,44224.00
2018-07-21T09:20:04.230Z,50816.00
2018-07-21T09:21:04.216Z,52096.00
2018-07-21T09:22:04.202Z,46816.00
2018-07-21T09:23:04.184Z,57440.00
2018-07-21T09:24:04.170Z,53824.00
2018-07-21T09:25:04.160Z,55488.00
2018-07-21T09:26:04.139Z,61280.00
2018-07-21T09:27:04.123Z,61024.00
2018-07-21T09:28:04.161Z,62496.00
2018-07-21T09:29:04.091Z,72320.00
2018-07-21T09:30:04.076Z,83744.00
2018-07-21T09:31:04.059Z,94624.00
2018-07-21T09:32:04.248Z,102016.00
2018-07-21T09:33:04.236Z,106336.00
2018-07-21T09:34:46.379Z,106432.00
2018-07-21T09:35:46.365Z,106784.00
2018-07-21T09:37:28.512Z,105696.00
2018-07-21T09:39:14.089Z,106496.00
2018-07-21T09:40:11.114Z,103488.00
2018-07-21T09:41:10.634Z,101024.00
2018-07-21T09:42:10.623Z,91936.00
2018-07-21T09:43:10.610Z,79360.00
2018-07-21T09:44:11.210Z,65152.00
2018-07-21T09:45:10.586Z,67008.00
2018-07-21T09:46:13.194Z,49664.00
2018-07-21T09:47:10.359Z,41312.00
2018-07-21T09:48:10.548Z,44736.00
2018-07-21T09:49:10.579Z,55360.00
2018-07-21T09:50:10.325Z,85984.00
2018-07-21T09:51:10.313Z,101568.00
2018-07-21T09:52:10.302Z,101952.00
2018-07-21T09:53:12.910Z,104000.00
2018-07-21T09:54:10.476Z,92736.00
2018-07-21T09:55:10.263Z,99904.00
2018-07-21T09:56:10.453Z,84672.00
2018-07-21T09:59:17.124Z,38400.00
2018-07-21T10:00:59.074Z,39968.00
2018-07-21T10:01:59.060Z,53952.00
2018-07-21T10:03:02.882Z,59648.00
2018-07-21T10:04:01.660Z,65792.00
2018-07-21T10:04:59.023Z,87840.00
2018-07-21T10:05:58.806Z,95008.00
2018-07-21T10:06:58.794Z,99360.00
2018-07-21T10:07:58.984Z,100416.00
2018-07-21T10:08:58.768Z,102688.00
2018-07-21T10:09:58.754Z,107872.00
2018-07-21T10:10:58.950Z,108352.00
2018-07-21T10:12:01.558Z,63520.00
2018-07-21T10:15:47.571Z,55872.00
2018-07-21T10:16:47.555Z,96544.00
2018-07-21T10:17:47.340Z,82816.00
2018-07-21T10:18:47.333Z,102112.00
2018-07-21T10:19:47.327Z,89024.00
2018-07-21T10:20:47.305Z,98720.00
2018-07-21T10:21:47.553Z,96256.00
2018-07-21T10:23:29.645Z,106976.00
2018-07-21T10:24:30.240Z,106880.00
2018-07-21T10:25:32.246Z,106496.00
2018-07-21T10:26:29.613Z,99840.00
2018-07-21T10:27:29.602Z,89024.00
2018-07-21T10:28:29.620Z,74464.00
2018-07-21T10:29:29.580Z,66272.00
2018-07-21T10:30:29.566Z,56000.00
2018-07-21T10:31:29.354Z,51744.00
2018-07-21T10:32:29.544Z,44320.00
2018-07-21T10:33:29.587Z,41216.00
2018-07-21T10:35:11.683Z,46752.00
2018-07-21T10:36:11.672Z,48992.00
2018-07-21T10:37:11.659Z,48608.00
2018-07-21T10:38:12.926Z,46368.00
2018-07-21T10:39:11.637Z,46048.00
2018-07-21T10:40:11.624Z,43424.00
2018-07-21T10:41:12.017Z,41696.00
2018-07-21T10:42:11.596Z,40928.00
2018-07-21T10:43:11.589Z,41248.00
2018-07-21T10:44:11.572Z,43072.00
2018-07-21T10:45:53.717Z,45440.00
2018-07-21T10:46:53.703Z,46944.00
2018-07-21T10:47:53.690Z,43040.00
2018-07-21T10:48:53.680Z,38944.00
2018-07-21T10:50:38.867Z,35360.00
2018-07-21T10:51:35.811Z,35968.00
2018-07-21T10:52:35.802Z,38112.00
2018-07-21T10:53:35.785Z,39072.00
2018-07-21T10:54:39.200Z,39936.00
2018-07-21T10:55:35.752Z,41728.00
2018-07-21T10:56:39.376Z,45280.00
2018-07-21T10:58:17.881Z,68192.00
2018-07-21T10:59:17.868Z,53184.00
2018-07-21T11:00:17.872Z,58432.00
2018-07-21T11:01:17.637Z,57216.00
2018-07-21T11:02:17.625Z,60160.00
2018-07-21T11:03:17.608Z,60576.00
2018-07-21T11:04:17.594Z,60416.00
2018-07-21T11:05:17.580Z,61408.00
2018-07-21T11:06:17.565Z,63360.00
2018-07-21T11:07:17.548Z,75296.00
2018-07-21T11:08:17.533Z,91680.00
2018-07-21T11:09:17.724Z,87680.00
2018-07-21T11:10:17.719Z,68288.00
2018-07-21T11:11:17.494Z,66144.00
2018-07-21T11:12:17.683Z,69984.00
2018-07-21T11:13:17.668Z,59488.00
2018-07-21T11:14:20.277Z,64992.00
2018-07-21T11:15:17.765Z,101440.00
2018-07-21T11:16:17.631Z,78016.00
2018-07-21T11:17:17.617Z,78016.00
2018-07-21T11:18:17.600Z,83488.00
2018-07-21T11:19:17.586Z,72928.00
2018-07-21T11:20:17.574Z,72064.00
2018-07-21T11:21:17.359Z,57152.00
2018-07-21T11:22:17.355Z,49536.00
2018-07-21T11:23:20.771Z,45824.00
2018-07-21T11:24:17.526Z,43840.00
2018-07-21T11:25:17.514Z,41568.00
2018-07-21T11:26:17.295Z,37440.00
2018-07-21T11:27:17.282Z,34272.00
2018-07-21T11:28:17.273Z,31296.00
2018-07-21T11:29:17.263Z,28736.00
2018-07-21T11:30:17.246Z,26496.00
2018-07-21T11:31:17.231Z,24768.00
2018-07-21T11:32:17.216Z,23584.00
2018-07-21T11:33:17.207Z,23296.00
2018-07-21T11:34:17.393Z,24192.00
2018-07-21T11:35:17.413Z,25792.00
2018-07-21T11:36:17.566Z,27520.00
2018-07-21T11:37:17.349Z,29152.00
2018-07-21T11:38:17.337Z,30688.00
2018-07-21T11:39:17.322Z,31936.00
2018-07-21T11:40:17.311Z,32992.00
2018-07-21T11:41:17.298Z,33664.00
2018-07-21T11:42:17.080Z,34112.00
2018-07-21T11:43:17.264Z,34432.00
2018-07-21T11:44:17.058Z,34720.00
2018-07-21T11:45:17.235Z,34976.00
2018-07-21T11:46:17.222Z,35360.00
2018-07-21T11:47:17.004Z,35840.00
2018-07-21T11:48:16.988Z,36512.00
2018-07-21T11:49:59.337Z,37856.00
2018-07-21T11:50:59.115Z,38816.00
2018-07-21T11:51:59.099Z,39744.00
2018-07-21T11:52:59.093Z,40576.00
2018-07-21T11:53:59.072Z,41248.00
2018-07-21T11:54:59.055Z,41856.00
2018-07-21T11:55:59.042Z,42432.00
2018-07-21T11:56:59.024Z,42912.00
2018-07-21T11:57:59.010Z,43424.00
2018-07-21T11:58:58.994Z,44192.00
2018-07-21T11:59:59.184Z,47840.00
2018-07-21T12:00:59.168Z,45120.00
2018-07-21T12:01:59.064Z,45056.00
2018-07-21T12:02:59.136Z,45120.00
2018-07-21T12:03:59.124Z,45248.00
2018-07-21T12:04:59.109Z,45760.00
2018-07-21T12:05:58.891Z,46304.00
2018-07-21T12:06:58.876Z,47968.00
2018-07-21T12:07:59.070Z,46592.00
2018-07-21T12:08:58.844Z,45120.00
2018-07-21T12:09:59.639Z,43808.00
2018-07-21T12:10:59.015Z,42816.00
2018-07-21T12:11:58.799Z,42272.00
2018-07-21T12:12:59.061Z,42208.00
2018-07-21T12:13:58.772Z,42752.00
2018-07-21T12:14:58.959Z,43872.00
2018-07-21T12:15:58.743Z,44896.00
2018-07-21T12:16:58.928Z,45184.00
2018-07-21T12:18:41.075Z,44544.00
2018-07-21T12:19:40.856Z,43744.00
2018-07-21T12:20:41.043Z,43008.00
2018-07-21T12:21:41.032Z,42368.00
2018-07-21T12:22:40.814Z,41792.00
2018-07-21T12:23:40.798Z,41216.00
2018-07-21T12:24:40.790Z,40384.00
2018-07-21T12:25:40.768Z,39424.00
2018-07-21T12:26:40.754Z,38656.00
2018-07-21T12:27:40.808Z,37952.00
2018-07-21T12:28:40.724Z,37216.00
2018-07-21T12:29:40.711Z,36672.00
2018-07-21T12:30:40.696Z,36384.00
2018-07-21T12:31:40.680Z,36288.00
2018-07-21T12:32:40.667Z,36480.00
2018-07-21T12:33:40.674Z,36960.00
2018-07-21T12:34:40.638Z,37824.00
2018-07-21T12:35:40.623Z,39232.00
2018-07-21T12:36:40.608Z,41216.00
2018-07-21T12:37:40.592Z,43840.00
2018-07-21T12:38:40.577Z,47520.00
2018-07-21T12:39:40.563Z,49376.00
2018-07-21T12:40:40.548Z,50784.00
2018-07-21T12:41:41.141Z,52064.00
2018-07-21T12:42:40.723Z,53088.00
2018-07-21T12:43:40.511Z,54016.00
2018-07-21T12:44:40.490Z,57152.00
2018-07-21T12:45:40.479Z,58464.00
2018-07-21T12:46:40.461Z,58528.00
2018-07-21T12:47:40.446Z,62304.00
2018-07-21T12:48:40.435Z,68800.00
2018-07-21T12:49:40.619Z,67904.00
2018-07-21T12:50:40.613Z,69248.00
2018-07-21T12:51:40.592Z,67520.00
2018-07-21T12:52:40.578Z,69568.00
2018-07-21T12:53:40.365Z,76416.00
2018-07-21T12:54:40.556Z,66752.00
2018-07-21T12:55:40.337Z,64416.00
2018-07-21T12:56:40.325Z,65696.00
2018-07-21T12:57:40.511Z,62144.00
2018-07-21T12:58:40.499Z,62112.00
2018-07-21T12:59:40.283Z,64480.00
2018-07-21T13:00:40.473Z,71136.00
2018-07-21T13:01:40.260Z,74368.00
2018-07-21T13:02:40.451Z,86720.00
2018-07-21T13:03:40.435Z,112576.00
2018-07-21T13:05:22.588Z,105088.00
2018-07-21T13:06:22.570Z,105696.00
2018-07-21T13:07:22.557Z,72192.00
2018-07-21T13:08:22.551Z,67040.00
2018-07-21T13:09:22.338Z,72608.00
2018-07-21T13:11:04.685Z,99008.00
2018-07-21T13:12:04.674Z,102528.00
2018-07-21T13:13:04.659Z,101216.00
2018-07-21T13:14:46.810Z,93216.00
2018-07-21T13:16:28.963Z,82272.00
2018-07-21T13:17:28.964Z,66912.00
2018-07-21T13:18:28.939Z,54912.00
2018-07-21T13:19:28.729Z,50144.00
2018-07-21T13:20:28.718Z,48384.00
2018-07-21T13:21:28.707Z,50944.00
2018-07-21T13:22:28.701Z,51136.00
2018-07-21T13:23:28.682Z,51104.00
2018-07-21T13:24:28.673Z,48832.00
2018-07-21T13:25:28.863Z,48704.00
2018-07-21T13:26:28.850Z,50464.00